Aldine, Texas
Current Conditions -  °F | °C
As of 6:53 PM on Saturday 25 Oct 2014 (Local Time) from KIAH Reporting Station
Clear Clear  
Wind Chill: 71°   Ceiling: Unl
Heat Index: 71°   Visibility: 10mi
Dew Point: 59°   Wind: 5mph
Humidity: 66%   Direction: 150°SSE
Pressure: 30.09"   Gusts: NA
Location:  29.93°N, 95.38°W
Report Text: KIAH 252353Z 15004KT 10SM CLR 22/15 A3009 RMK AO2 SLP187 T02170150 10294 20217 56004
Loading
Personal Weather Stations






























Interactive Weather Map New forecast layout! Learn more

10-Day Weather Forecast

Advertisements
Track Severe Weather on mobile